Time;durP1;ratioP1;P1;durP2;ratioP2;P2;SDS_P1;SDS_P2;PMS_P1;PMS_P2;Temp;Humidity;BMP_temperature;BMP_pressure;BME280_temperature;BME280_humidity;BME280_pressure;Samples;Min_cycle;Max_cycle;Signal;HPM_P1;HPM_P2
2021/05/26 00:02:10;;;;;;;18.25;9.68;;;9.80;99.90;;;;;;5034760;28;20057;-68
2021/05/26 00:04:36;;;;;;;20.98;9.55;;;9.80;99.90;;;;;;5033425;28;20475;-68
2021/05/26 00:07:02;;;;;;;14.55;8.85;;;9.80;99.90;;;;;;5034602;28;20032;-68
2021/05/26 00:09:27;;;;;;;20.90;9.57;;;9.80;99.90;;;;;;5034861;28;20033;-68
2021/05/26 00:11:53;;;;;;;20.50;9.15;;;9.80;99.90;;;;;;5034539;28;20032;-68
2021/05/26 00:14:18;;;;;;;14.27;8.07;;;9.70;99.90;;;;;;5034778;28;20052;-68
2021/05/26 00:16:44;;;;;;;19.08;8.35;;;9.70;99.90;;;;;;5034444;28;20101;-68
2021/05/26 00:19:10;;;;;;;15.40;7.55;;;9.70;99.90;;;;;;5034712;28;20049;-68
2021/05/26 00:21:36;;;;;;;17.52;8.18;;;9.70;99.90;;;;;;5034609;28;20017;-68
2021/05/26 00:24:01;;;;;;;15.43;7.28;;;9.60;99.90;;;;;;5034305;28;20079;-68
2021/05/26 00:26:27;;;;;;;19.58;8.40;;;9.60;99.90;;;;;;5034500;28;20062;-68
2021/05/26 00:28:55;;;;;;;17.77;8.27;;;9.50;99.90;;;;;;5033350;28;20492;-68
2021/05/26 00:31:22;;;;;;;19.65;7.97;;;9.50;99.90;;;;;;5034504;28;20348;-68
2021/05/26 00:33:48;;;;;;;13.13;7.07;;;9.50;99.90;;;;;;5034442;28;20018;-68
2021/05/26 00:36:14;;;;;;;11.93;8.13;;;9.50;99.90;;;;;;5034379;28;20095;-68
2021/05/26 00:38:40;;;;;;;12.32;7.53;;;9.60;99.90;;;;;;5034333;28;20072;-68
2021/05/26 00:41:05;;;;;;;15.38;7.20;;;9.60;99.90;;;;;;5034320;28;20030;-68
2021/05/26 00:43:31;;;;;;;14.68;6.53;;;9.60;99.90;;;;;;5034299;28;20037;-68
2021/05/26 00:45:56;;;;;;;12.20;6.50;;;9.50;99.90;;;;;;5034208;28;20029;-68
2021/05/26 00:48:22;;;;;;;10.02;7.05;;;9.50;99.90;;;;;;5034245;28;20032;-68
2021/05/26 00:50:47;;;;;;;8.60;5.80;;;9.40;99.90;;;;;;5033920;28;20068;-68
2021/05/26 00:53:14;;;;;;;13.55;6.50;;;9.30;99.90;;;;;;5034183;28;20018;-68
2021/05/26 00:55:42;;;;;;;12.50;6.30;;;9.30;99.90;;;;;;5034162;28;20017;-68
2021/05/26 00:58:09;;;;;;;14.82;6.50;;;9.30;99.90;;;;;;5033877;28;20151;-68
2021/05/26 01:00:37;;;;;;;13.15;6.00;;;9.20;99.90;;;;;;5033712;28;20032;-68
2021/05/26 01:03:04;;;;;;;14.93;6.10;;;9.10;99.90;;;;;;5033826;28;20025;-68
2021/05/26 01:05:30;;;;;;;14.57;6.25;;;9.10;99.90;;;;;;5033490;28;20053;-68
2021/05/26 01:07:56;;;;;;;14.60;6.53;;;9.00;99.90;;;;;;5033722;28;20455;-68
2021/05/26 01:10:26;;;;;;;11.93;6.18;;;9.00;99.90;;;;;;5032233;28;20025;-68
2021/05/26 01:12:52;;;;;;;14.90;5.60;;;8.90;99.90;;;;;;5033734;28;20462;-68
2021/05/26 01:15:19;;;;;;;11.00;6.05;;;8.90;99.90;;;;;;5033654;28;20433;-68
2021/05/26 01:17:45;;;;;;;15.50;6.25;;;8.90;99.90;;;;;;5033669;28;20467;-68
2021/05/26 01:20:19;;;;;;;10.68;5.45;;;8.90;99.90;;;;;;5033930;28;20483;-68
2021/05/26 01:22:45;;;;;;;12.50;6.38;;;8.90;99.90;;;;;;5032422;28;20022;-68
2021/05/26 01:25:11;;;;;;;12.27;5.50;;;8.80;99.90;;;;;;5033517;28;20047;-68
2021/05/26 01:27:36;;;;;;;12.80;6.28;;;8.80;99.90;;;;;;5032436;28;20410;-68
2021/05/26 01:30:05;;;;;;;14.45;6.07;;;8.70;99.90;;;;;;5033279;28;20022;-68
2021/05/26 01:32:31;;;;;;;13.93;6.80;;;8.70;99.90;;;;;;5033500;28;20029;-68
2021/05/26 01:34:57;;;;;;;19.27;6.15;;;8.80;99.90;;;;;;5033787;28;20030;-68
2021/05/26 01:37:22;;;;;;;15.88;6.78;;;8.70;99.90;;;;;;5033763;28;20151;-68
2021/05/26 01:39:49;;;;;;;16.33;6.35;;;8.70;99.90;;;;;;5033488;28;20092;-68
2021/05/26 01:42:31;;;;;;;14.10;6.22;;;8.70;99.90;;;;;;5034235;28;20107;-68
2021/05/26 01:44:57;;;;;;;12.40;6.03;;;8.70;99.90;;;;;;5033352;28;20026;-68
2021/05/26 01:47:23;;;;;;;18.13;7.07;;;8.60;99.90;;;;;;5033649;28;20104;-68
2021/05/26 01:49:48;;;;;;;15.60;7.15;;;8.60;99.90;;;;;;5033642;28;20057;-68
2021/05/26 01:52:14;;;;;;;11.40;6.53;;;8.60;99.90;;;;;;5033625;28;20375;-68
2021/05/26 01:54:39;;;;;;;13.98;6.72;;;8.60;99.90;;;;;;5033318;28;20064;-68
2021/05/26 01:57:05;;;;;;;13.98;6.03;;;8.60;99.90;;;;;;5033570;28;20021;-68
2021/05/26 01:59:30;;;;;;;13.18;5.70;;;8.60;99.90;;;;;;5033541;28;20523;-68
2021/05/26 02:01:56;;;;;;;13.48;5.75;;;8.70;99.90;;;;;;5033521;28;20025;-68
2021/05/26 02:04:21;;;;;;;14.68;5.85;;;8.80;99.90;;;;;;5033017;28;20017;-69
2021/05/26 02:07:00;;;;;;;10.52;6.10;;;8.80;99.90;;;;;;5033457;28;20422;-68
2021/05/26 02:09:25;;;;;;;11.13;5.38;;;8.90;99.90;;;;;;5033492;28;20112;-68
2021/05/26 02:12:32;;;;;;;10.60;5.30;;;8.90;99.90;;;;;;5033473;28;20104;-68
2021/05/26 02:14:36;;;;;;;13.27;5.90;;;8.90;99.90;;;;;;5036346;28;20052;-68
2021/05/26 02:17:02;;;;;;;13.43;5.18;;;8.80;99.90;;;;;;5037008;28;20589;-68
2021/05/26 02:19:27;;;;;;;10.15;5.25;;;8.80;99.90;;;;;;5035171;28;20096;-68
2021/05/26 02:21:53;;;;;;;14.57;5.22;;;8.70;99.90;;;;;;5036908;28;20047;-68
2021/05/26 02:24:18;;;;;;;12.45;5.45;;;8.70;99.90;;;;;;5036323;28;20026;-68
2021/05/26 02:26:44;;;;;;;17.67;5.78;;;8.50;99.90;;;;;;5036748;28;20509;-68
2021/05/26 02:29:09;;;;;;;8.65;5.75;;;8.50;99.90;;;;;;5036220;28;20383;-68
2021/05/26 02:31:35;;;;;;;13.65;6.72;;;8.50;99.90;;;;;;5035266;28;20112;-68
2021/05/26 02:34:00;;;;;;;18.02;6.90;;;8.50;99.90;;;;;;5036131;28;20022;-68
2021/05/26 02:36:26;;;;;;;13.63;6.85;;;8.50;99.90;;;;;;5034858;28;20471;-68
2021/05/26 02:38:52;;;;;;;13.20;7.13;;;8.60;99.90;;;;;;5036035;28;20029;-68
2021/05/26 02:41:17;;;;;;;21.60;7.80;;;8.60;99.90;;;;;;5036008;28;20033;-68
2021/05/26 02:43:43;;;;;;;13.65;7.20;;;8.70;99.90;;;;;;5036507;28;20030;-68
2021/05/26 02:46:08;;;;;;;13.25;6.80;;;8.70;99.90;;;;;;5034585;28;20383;-68
2021/05/26 02:48:34;;;;;;;16.73;7.50;;;8.80;99.90;;;;;;5036427;28;20025;-68
2021/05/26 02:50:59;;;;;;;10.98;6.35;;;8.70;99.90;;;;;;5036387;28;20025;-68
2021/05/26 02:53:25;;;;;;;17.90;7.70;;;8.70;99.90;;;;;;5035810;28;20040;-68
2021/05/26 02:55:50;;;;;;;17.15;7.32;;;8.70;99.90;;;;;;5036035;28;20129;-68
2021/05/26 02:58:16;;;;;;;10.90;6.35;;;8.80;99.90;;;;;;5036287;28;20104;-68
2021/05/26 03:00:43;;;;;;;13.25;7.78;;;8.70;99.90;;;;;;5035910;28;20041;-68
2021/05/26 03:03:08;;;;;;;16.20;6.95;;;8.80;99.90;;;;;;5036171;28;20025;-68
2021/05/26 03:05:34;;;;;;;14.65;7.28;;;8.80;99.90;;;;;;5035492;28;20045;-68
2021/05/26 03:07:59;;;;;;;16.80;7.57;;;8.90;99.90;;;;;;5036092;28;20056;-68
2021/05/26 03:10:25;;;;;;;23.05;8.82;;;8.90;99.90;;;;;;5036034;28;20064;-68
2021/05/26 03:12:51;;;;;;;17.38;7.20;;;8.90;99.90;;;;;;5035415;28;20030;-68
2021/05/26 03:15:17;;;;;;;17.23;7.85;;;9.00;99.90;;;;;;5035394;28;20034;-68
2021/05/26 03:17:43;;;;;;;17.90;7.85;;;9.00;99.90;;;;;;5035857;28;20025;-68
2021/05/26 03:20:13;;;;;;;19.08;7.85;;;9.00;99.90;;;;;;5035587;28;20052;-68
2021/05/26 03:22:38;;;;;;;16.35;7.63;;;9.10;99.90;;;;;;5035536;28;20104;-68
2021/05/26 03:25:06;;;;;;;20.40;8.70;;;9.10;99.90;;;;;;5035666;28;20108;-68
2021/05/26 03:27:35;;;;;;;17.92;8.65;;;9.10;99.90;;;;;;5035684;28;20025;-68
2021/05/26 03:30:02;;;;;;;17.95;8.68;;;9.20;99.90;;;;;;5035648;28;20025;-68
2021/05/26 03:32:28;;;;;;;20.45;8.30;;;9.20;99.90;;;;;;5035289;28;20080;-68
2021/05/26 03:34:54;;;;;;;23.65;8.30;;;9.20;99.90;;;;;;5035517;28;20021;-68
2021/05/26 03:37:19;;;;;;;26.48;9.00;;;9.30;99.90;;;;;;5035263;28;20040;-68
2021/05/26 03:39:45;;;;;;;21.02;8.77;;;9.30;99.90;;;;;;5035193;28;20017;-68
2021/05/26 03:42:11;;;;;;;20.75;7.93;;;9.30;99.90;;;;;;5035146;28;20063;-68
2021/05/26 03:44:36;;;;;;;21.77;7.10;;;9.30;99.90;;;;;;5035081;28;20029;-68
2021/05/26 03:47:02;;;;;;;18.25;7.88;;;9.30;99.90;;;;;;5034956;28;20475;-68
2021/05/26 03:49:27;;;;;;;20.75;7.68;;;9.30;99.90;;;;;;5035252;28;20451;-68
2021/05/26 03:51:53;;;;;;;17.25;7.95;;;9.30;99.90;;;;;;5033750;28;20033;-68
2021/05/26 03:54:18;;;;;;;19.98;7.82;;;9.30;99.90;;;;;;5034592;28;20024;-68
2021/05/26 03:56:44;;;;;;;20.60;8.38;;;9.40;99.90;;;;;;5034796;28;20029;-68
2021/05/26 03:59:10;;;;;;;19.42;8.20;;;9.40;99.90;;;;;;5034796;28;20025;-68
2021/05/26 04:01:36;;;;;;;24.13;8.10;;;9.40;99.90;;;;;;5035039;28;20025;-68
2021/05/26 04:04:01;;;;;;;21.92;8.32;;;9.40;99.90;;;;;;5034713;28;20033;-68
2021/05/26 04:06:27;;;;;;;21.58;9.73;;;9.40;99.90;;;;;;5034988;28;20052;-68
2021/05/26 04:08:53;;;;;;;18.42;8.38;;;9.40;99.90;;;;;;5034880;28;20518;-68
2021/05/26 04:11:19;;;;;;;25.27;7.88;;;9.40;99.90;;;;;;5034881;28;20028;-68
2021/05/26 04:13:44;;;;;;;17.98;8.10;;;9.50;99.90;;;;;;5034199;28;20056;-68
2021/05/26 04:16:10;;;;;;;20.50;8.38;;;9.50;99.90;;;;;;5034790;28;20379;-68
2021/05/26 04:18:36;;;;;;;24.63;9.35;;;9.50;99.90;;;;;;5034711;28;20065;-68
2021/05/26 04:21:02;;;;;;;16.83;8.00;;;9.60;99.90;;;;;;5034641;28;20034;-68
2021/05/26 04:23:27;;;;;;;19.40;7.82;;;9.60;99.90;;;;;;5034365;28;20096;-68
2021/05/26 04:25:53;;;;;;;26.73;8.30;;;9.60;99.90;;;;;;5034507;28;20033;-68
2021/05/26 04:28:20;;;;;;;20.45;8.77;;;9.60;99.90;;;;;;5034555;28;20063;-68
2021/05/26 04:30:46;;;;;;;21.83;8.13;;;9.60;99.90;;;;;;5034262;28;20048;-68
2021/05/26 04:33:12;;;;;;;21.58;8.25;;;9.70;99.90;;;;;;5034468;28;20025;-68
2021/05/26 04:35:37;;;;;;;18.60;8.75;;;9.70;99.90;;;;;;5033759;28;20433;-68
2021/05/26 04:38:03;;;;;;;15.50;8.85;;;9.70;99.90;;;;;;5034424;28;20554;-68
2021/05/26 04:40:29;;;;;;;25.80;9.07;;;9.70;99.90;;;;;;5032581;28;20025;-68
2021/05/26 04:42:55;;;;;;;19.98;9.23;;;9.70;99.90;;;;;;5034057;28;20022;-68
2021/05/26 04:45:20;;;;;;;22.23;9.38;;;9.80;99.90;;;;;;5033962;28;20029;-68
2021/05/26 04:47:46;;;;;;;24.13;9.85;;;9.80;99.90;;;;;;5034298;28;20373;-68
2021/05/26 04:50:12;;;;;;;20.20;8.98;;;9.80;99.90;;;;;;5034269;28;20454;-68
2021/05/26 04:52:38;;;;;;;26.42;9.70;;;9.90;99.90;;;;;;5034200;28;20033;-68
2021/05/26 04:55:04;;;;;;;22.30;9.85;;;9.90;99.90;;;;;;5033918;28;20031;-68
2021/05/26 04:57:30;;;;;;;21.58;9.35;;;9.90;99.90;;;;;;5033910;28;20489;-68
2021/05/26 04:59:55;;;;;;;25.52;9.23;;;10.00;99.90;;;;;;5034095;28;20030;-68
2021/05/26 05:02:21;;;;;;;25.00;9.38;;;10.00;99.90;;;;;;5034090;28;20083;-68
2021/05/26 05:04:46;;;;;;;21.83;8.52;;;10.00;99.90;;;;;;5033753;28;20394;-68
2021/05/26 05:07:12;;;;;;;17.60;8.75;;;10.00;99.90;;;;;;5033984;28;20026;-68
2021/05/26 05:09:37;;;;;;;24.05;8.75;;;10.10;99.90;;;;;;5033988;28;20461;-68
2021/05/26 05:12:04;;;;;;;15.57;9.23;;;10.10;99.90;;;;;;5033692;28;20033;-68
2021/05/26 05:14:29;;;;;;;22.65;8.80;;;10.00;99.90;;;;;;5033952;28;20032;-68
2021/05/26 05:16:54;;;;;;;20.58;8.75;;;10.10;99.90;;;;;;5033892;28;20022;-68
2021/05/26 05:19:20;;;;;;;20.65;8.90;;;10.10;99.90;;;;;;5033863;28;20117;-68
2021/05/26 05:21:46;;;;;;;19.25;9.45;;;10.00;99.90;;;;;;5033826;28;20018;-68
2021/05/26 05:24:11;;;;;;;22.35;8.68;;;10.10;99.90;;;;;;5033539;28;20038;-68
2021/05/26 05:26:37;;;;;;;25.30;9.65;;;10.10;99.90;;;;;;5033770;28;20068;-68
2021/05/26 05:29:03;;;;;;;20.63;8.98;;;10.20;99.90;;;;;;5033544;28;20421;-68
2021/05/26 05:31:31;;;;;;;26.20;9.18;;;10.20;99.90;;;;;;5033475;28;20029;-68
2021/05/26 05:33:56;;;;;;;19.25;8.60;;;10.10;99.90;;;;;;5032008;28;20021;-68
2021/05/26 05:36:22;;;;;;;19.42;8.68;;;10.10;99.90;;;;;;5033743;28;20112;-68
2021/05/26 05:38:47;;;;;;;19.88;9.25;;;10.10;99.90;;;;;;5033464;28;20104;-68
2021/05/26 05:41:13;;;;;;;19.27;9.07;;;10.10;99.90;;;;;;5033403;28;20080;-68
2021/05/26 05:43:38;;;;;;;16.70;9.18;;;10.10;99.90;;;;;;5033661;28;20543;-68
2021/05/26 05:46:04;;;;;;;20.80;8.88;;;10.10;99.90;;;;;;5031729;28;20076;-68
2021/05/26 05:48:29;;;;;;;21.08;8.90;;;10.10;99.90;;;;;;5035628;28;20022;-68
2021/05/26 05:50:55;;;;;;;24.67;9.52;;;10.10;99.90;;;;;;5037164;28;20044;-68
2021/05/26 05:53:21;;;;;;;16.75;8.63;;;10.10;99.90;;;;;;5037421;28;20030;-68
2021/05/26 05:55:46;;;;;;;19.17;9.10;;;10.20;99.90;;;;;;5037118;28;20030;-68
2021/05/26 05:58:14;;;;;;;16.10;8.05;;;10.20;99.90;;;;;;5037335;28;20048;-68
2021/05/26 06:00:39;;;;;;;18.25;8.27;;;10.20;99.90;;;;;;5037087;28;20374;-68
2021/05/26 06:03:05;;;;;;;21.23;9.30;;;10.30;99.90;;;;;;5035209;28;20025;-68
2021/05/26 06:05:31;;;;;;;17.90;7.88;;;10.30;99.90;;;;;;5036389;28;20458;-68
2021/05/26 06:07:57;;;;;;;17.00;8.00;;;10.40;99.90;;;;;;5036631;28;20464;-68
2021/05/26 06:10:23;;;;;;;17.40;6.15;;;10.50;99.90;;;;;;5035897;28;20087;-69
2021/05/26 06:12:50;;;;;;;14.18;6.78;;;10.90;99.90;;;;;;5037064;28;20029;-69
2021/05/26 06:15:15;;;;;;;15.20;6.30;;;10.90;99.90;;;;;;5036939;28;20379;-69
2021/05/26 06:17:41;;;;;;;15.63;6.95;;;10.90;99.90;;;;;;5035772;28;20034;-68
2021/05/26 06:20:07;;;;;;;16.92;6.55;;;10.90;99.90;;;;;;5037165;28;20030;-68
2021/05/26 06:22:33;;;;;;;14.68;6.63;;;10.80;99.90;;;;;;5035447;28;20087;-68
2021/05/26 06:24:58;;;;;;;16.25;6.00;;;10.90;99.90;;;;;;5026677;28;20109;-68
2021/05/26 06:27:24;;;;;;;16.45;5.35;;;10.90;99.90;;;;;;5029860;28;20030;-68
2021/05/26 06:29:49;;;;;;;11.55;5.40;;;10.90;99.90;;;;;;5021011;28;20054;-68
2021/05/26 06:32:15;;;;;;;12.45;5.10;;;10.90;99.90;;;;;;5035533;28;20032;-68
2021/05/26 06:34:40;;;;;;;16.58;5.20;;;10.90;99.90;;;;;;5034831;28;20026;-68
2021/05/26 06:37:06;;;;;;;9.80;4.10;;;10.90;99.90;;;;;;5024018;28;20040;-68
2021/05/26 06:39:32;;;;;;;10.80;4.40;;;10.80;99.90;;;;;;5032139;28;20033;-68
2021/05/26 06:41:57;;;;;;;12.23;4.60;;;10.70;99.90;;;;;;5033007;28;20030;-68
2021/05/26 06:44:23;;;;;;;10.50;4.32;;;10.70;99.90;;;;;;5034318;28;20033;-68
2021/05/26 06:46:48;;;;;;;16.33;4.13;;;10.70;99.90;;;;;;5027340;28;20034;-68
2021/05/26 06:49:14;;;;;;;7.93;3.72;;;10.70;99.90;;;;;;5015496;28;20030;-68
2021/05/26 06:51:39;;;;;;;7.70;3.90;;;10.70;99.90;;;;;;5025101;28;20416;-68
2021/05/26 06:54:05;;;;;;;9.55;3.90;;;10.80;99.90;;;;;;5035406;28;20056;-68
2021/05/26 06:56:31;;;;;;;8.38;3.95;;;10.80;99.90;;;;;;5035263;28;20093;-68
2021/05/26 06:58:56;;;;;;;7.25;3.83;;;10.90;99.90;;;;;;5029742;28;20024;-68
2021/05/26 07:01:24;;;;;;;5.68;3.50;;;10.90;99.90;;;;;;5033593;28;20545;-68
2021/05/26 07:03:49;;;;;;;6.13;3.50;;;11.10;99.90;;;;;;5035357;28;20025;-68
2021/05/26 07:06:15;;;;;;;6.13;2.92;;;11.20;99.90;;;;;;5034740;28;20048;-68
2021/05/26 07:08:40;;;;;;;6.97;3.50;;;11.30;99.90;;;;;;5035139;28;20441;-68
2021/05/26 07:11:06;;;;;;;10.98;3.30;;;11.40;99.90;;;;;;5035105;28;20032;-68
2021/05/26 07:13:31;;;;;;;5.45;3.13;;;11.40;99.90;;;;;;5034646;28;20030;-68
2021/05/26 07:15:57;;;;;;;7.93;2.60;;;11.50;99.90;;;;;;5034914;28;20033;-69
2021/05/26 07:18:22;;;;;;;3.80;2.67;;;11.40;99.90;;;;;;5035195;28;20360;-69
2021/05/26 07:20:49;;;;;;;5.80;3.30;;;11.40;99.90;;;;;;5034936;28;20504;-69
2021/05/26 07:23:17;;;;;;;5.88;2.80;;;11.50;99.90;;;;;;5042352;28;20037;-68
2021/05/26 07:25:42;;;;;;;11.32;3.08;;;11.60;99.90;;;;;;5035177;28;20360;-69
2021/05/26 07:28:08;;;;;;;3.83;2.72;;;11.60;99.90;;;;;;5034422;28;20032;-69
2021/05/26 07:30:40;;;;;;;8.07;3.10;;;11.70;99.90;;;;;;5034703;28;20018;-69
2021/05/26 07:33:06;;;;;;;5.30;2.45;;;11.90;99.90;;;;;;5015056;28;20391;-69
2021/05/26 07:35:31;;;;;;;4.78;2.72;;;11.90;99.90;;;;;;5025070;28;20112;-69
2021/05/26 07:37:57;;;;;;;5.90;2.80;;;11.90;99.90;;;;;;5027106;28;20029;-68
2021/05/26 07:40:23;;;;;;;3.85;2.40;;;12.20;99.90;;;;;;5034356;28;20026;-69
2021/05/26 07:42:49;;;;;;;6.15;2.50;;;12.10;99.90;;;;;;5034587;28;20034;-68
2021/05/26 07:45:15;;;;;;;4.10;2.45;;;11.90;99.90;;;;;;5033227;28;20674;-68
2021/05/26 07:47:40;;;;;;;7.20;2.80;;;11.90;99.90;;;;;;5034145;28;20025;-68
2021/05/26 07:50:07;;;;;;;9.00;3.40;;;11.90;99.90;;;;;;5034546;28;20079;-69
2021/05/26 07:52:32;;;;;;;4.80;3.05;;;11.90;99.90;;;;;;5032939;28;20033;-68
2021/05/26 07:54:58;;;;;;;7.97;3.05;;;11.90;99.90;;;;;;5034213;28;20034;-69
2021/05/26 07:57:24;;;;;;;7.63;2.80;;;11.70;99.90;;;;;;5034182;28;20025;-68
2021/05/26 07:59:50;;;;;;;6.53;3.17;;;11.70;99.90;;;;;;5034294;28;20104;-68
2021/05/26 08:02:16;;;;;;;7.45;2.80;;;11.80;99.90;;;;;;5033855;28;20048;-69
2021/05/26 08:04:42;;;;;;;5.65;2.40;;;11.80;99.90;;;;;;5034753;28;20054;-68
2021/05/26 08:07:09;;;;;;;5.45;2.33;;;11.90;99.90;;;;;;5032268;28;20036;-68
2021/05/26 08:09:36;;;;;;;5.63;2.60;;;11.90;99.90;;;;;;5027623;28;20386;-68
2021/05/26 08:12:02;;;;;;;5.15;1.95;;;11.90;99.90;;;;;;5033089;28;20025;-68
2021/05/26 08:14:29;;;;;;;2.88;1.80;;;12.00;99.90;;;;;;5033745;28;20410;-68
2021/05/26 08:16:55;;;;;;;5.53;1.75;;;12.10;99.90;;;;;;5018966;28;20022;-68
2021/05/26 08:19:20;;;;;;;2.58;2.20;;;12.10;99.90;;;;;;5028184;28;20113;-68
2021/05/26 08:21:46;;;;;;;4.75;2.40;;;12.30;99.90;;;;;;5037782;28;20031;-68
2021/05/26 08:24:12;;;;;;;6.18;2.22;;;12.60;99.90;;;;;;5053882;28;20029;-68
2021/05/26 08:26:38;;;;;;;4.38;1.55;;;12.60;99.90;;;;;;5036351;28;20017;-68
2021/05/26 08:29:04;;;;;;;8.55;2.53;;;12.60;99.90;;;;;;5033537;28;20025;-68
2021/05/26 08:31:31;;;;;;;7.00;3.65;;;12.90;99.90;;;;;;5032782;28;20052;-68
2021/05/26 08:33:56;;;;;;;5.15;1.92;;;12.90;99.90;;;;;;5032873;28;20025;-68
2021/05/26 08:36:23;;;;;;;3.03;1.83;;;13.30;99.90;;;;;;5033370;28;20033;-68
2021/05/26 08:38:49;;;;;;;4.15;1.80;;;13.40;99.90;;;;;;5033300;28;20029;-68
2021/05/26 08:41:19;;;;;;;4.70;1.60;;;13.80;99.90;;;;;;5032925;28;20037;-68
2021/05/26 08:43:44;;;;;;;4.82;1.70;;;13.30;99.90;;;;;;5033046;28;20029;-68
2021/05/26 08:46:10;;;;;;;6.18;1.80;;;13.10;99.90;;;;;;5032595;28;20033;-68
2021/05/26 08:48:36;;;;;;;4.45;1.80;;;13.50;99.90;;;;;;5033929;28;20475;-68
2021/05/26 08:51:06;;;;;;;6.25;1.92;;;14.60;99.90;;;;;;5031893;28;20382;-68
2021/05/26 08:53:33;;;;;;;6.82;2.00;;;15.20;99.90;;;;;;5032020;28;20032;-68
2021/05/26 08:55:59;;;;;;;5.07;1.58;;;15.00;99.90;;;;;;5032022;28;20116;-68
2021/05/26 08:58:25;;;;;;;2.22;1.48;;;15.10;99.90;;;;;;5031236;28;20109;-68
2021/05/26 09:00:50;;;;;;;5.78;1.67;;;15.60;99.90;;;;;;5036750;28;20037;-69
2021/05/26 09:03:16;;;;;;;4.82;2.10;;;16.80;99.90;;;;;;5049707;28;20033;-69
2021/05/26 09:05:43;;;;;;;4.47;1.40;;;17.90;99.90;;;;;;5033304;28;20050;-69
2021/05/26 09:11:01;;;;;;;4.43;1.27;;;17.80;99.90;;;;;;5109883;27;20449;-67
2021/05/26 09:13:30;;;;;;;2.75;1.60;;;18.30;99.90;;;;;;5089682;28;20031;-68
2021/05/26 09:15:57;;;;;;;5.85;1.58;;;18.70;99.90;;;;;;5090051;28;20442;-68
2021/05/26 09:18:22;;;;;;;4.15;1.67;;;19.00;99.90;;;;;;5090434;28;20016;-68
2021/05/26 09:20:48;;;;;;;4.50;1.60;;;18.50;99.90;;;;;;5089879;28;20029;-67
2021/05/26 09:23:18;;;;;;;6.47;1.50;;;19.20;99.90;;;;;;5089963;28;20060;-68
2021/05/26 09:28:28;;;;;;;5.07;1.42;;;17.90;99.90;;;;;;5110624;27;1160912;-69
2021/05/26 09:31:06;;;;;;;6.88;1.70;;;16.10;99.90;;;;;;5131303;27;20034;-69
2021/05/26 09:33:44;;;;;;;5.38;1.73;;;15.40;99.90;;;;;;5130697;27;20407;-69
2021/05/26 09:36:21;;;;;;;3.50;1.40;;;15.70;99.90;;;;;;5118750;28;20081;-68
2021/05/26 09:38:58;;;;;;;5.60;1.50;;;17.50;99.90;;;;;;5110864;28;20028;-69
2021/05/26 09:41:33;;;;;;;6.05;2.25;;;18.00;99.90;;;;;;5118390;28;20028;-69
2021/05/26 09:44:02;;;;;;;4.00;1.88;;;16.70;99.90;;;;;;5130991;27;20020;-69
2021/05/26 09:46:34;;;;;;;4.90;1.85;;;16.20;99.90;;;;;;5130797;27;20049;-69
2021/05/26 09:49:02;;;;;;;4.07;1.90;;;15.70;99.90;;;;;;5130755;27;20058;-68
2021/05/26 09:51:29;;;;;;;2.42;1.85;;;16.20;99.90;;;;;;5118530;28;20035;-70
2021/05/26 09:56:51;;;;;;;4.85;2.10;;;16.40;99.90;;;;;;5110903;27;20860;-71
2021/05/26 09:59:17;;;;;;;3.30;1.52;;;16.90;99.90;;;;;;5106513;28;20108;-71
2021/05/26 10:01:43;;;;;;;4.25;1.92;;;16.50;99.90;;;;;;5090905;28;20559;-71
2021/05/26 10:04:09;;;;;;;2.05;1.70;;;16.20;99.90;;;;;;5091915;28;20024;-71
2021/05/26 10:06:38;;;;;;;5.35;1.80;;;15.80;99.90;;;;;;5089859;28;20025;-71
2021/05/26 10:09:05;;;;;;;3.85;1.80;;;15.50;99.90;;;;;;5097952;28;20031;-71
2021/05/26 10:11:33;;;;;;;3.83;1.85;;;16.50;99.90;;;;;;5108189;28;20024;-71
2021/05/26 10:14:05;;;;;;;2.80;1.80;;;18.10;99.90;;;;;;5097827;28;20032;-69
2021/05/26 10:16:32;;;;;;;6.55;2.50;;;18.00;99.90;;;;;;5103627;28;20036;-70
2021/05/26 10:19:02;;;;;;;5.40;2.70;;;17.30;99.90;;;;;;5088824;28;20031;-71
2021/05/26 10:21:29;;;;;;;5.22;2.38;;;16.80;99.90;;;;;;5088558;28;20416;-71
2021/05/26 10:23:55;;;;;;;5.40;2.63;;;16.50;99.90;;;;;;5091712;28;20028;-71
2021/05/26 10:32:06;;;;;;;4.68;2.83;;;16.00;99.90;;;;;;5089256;28;20445;-70
2021/05/26 10:34:52;;;;;;;3.58;2.78;;;15.40;99.90;;;;;;5080077;28;20074;-70
2021/05/26 10:37:37;;;;;;;4.50;3.03;;;15.40;99.90;;;;;;5066238;28;20028;-70
2021/05/26 10:40:30;;;;;;;5.47;3.03;;;15.40;99.90;;;;;;5069107;28;20025;-70
2021/05/26 10:42:56;;;;;;;7.82;3.22;;;15.40;99.90;;;;;;5068848;28;20389;-70
2021/05/26 10:45:34;;;;;;;4.82;2.72;;;15.60;99.90;;;;;;5068644;28;20094;-70
2021/05/26 10:48:00;;;;;;;5.22;3.05;;;16.00;99.90;;;;;;5085022;28;20029;-70
2021/05/26 10:53:36;;;;;;;5.18;2.90;;;16.80;99.90;;;;;;5069837;28;20369;-70
2021/05/26 10:56:03;;;;;;;5.00;2.63;;;16.80;99.90;;;;;;5069589;28;20021;-70
2021/05/26 10:58:40;;;;;;;2.97;2.67;;;16.60;99.90;;;;;;5069926;28;20033;-70
2021/05/26 11:01:10;;;;;;;4.22;3.00;;;16.20;99.90;;;;;;5070027;28;20016;-71
2021/05/26 11:03:41;;;;;;;5.57;3.08;;;15.90;99.90;;;;;;5069815;28;20028;-70
2021/05/26 11:08:47;;;;;;;5.07;3.70;;;15.90;99.90;;;;;;5111305;27;20431;-70
2021/05/26 11:19:25;;;;;;;3.63;3.28;;;16.90;99.90;;;;;;5069663;28;20453;-70
2021/05/26 11:22:11;;;;;;;5.63;4.20;;;16.20;99.90;;;;;;5058738;28;20033;-70
2021/05/26 11:24:40;;;;;;;5.18;3.30;;;15.80;99.90;;;;;;5053058;28;20102;-71
2021/05/26 11:27:23;;;;;;;5.25;3.42;;;15.70;99.90;;;;;;5055053;28;20053;-71
2021/05/26 11:29:51;;;;;;;2.58;2.30;;;16.40;99.90;;;;;;5058825;28;20021;-71
2021/05/26 11:32:20;;;;;;;6.03;2.65;;;16.80;99.90;;;;;;5062341;28;20052;-71
2021/05/26 11:34:48;;;;;;;3.90;3.08;;;17.30;99.90;;;;;;5040427;28;20013;-71
2021/05/26 11:37:33;;;;;;;4.15;2.80;;;16.90;99.90;;;;;;5053812;28;20561;-70
2021/05/26 11:40:00;;;;;;;5.45;2.67;;;17.10;99.90;;;;;;5051315;28;20021;-71
2021/05/26 11:42:29;;;;;;;2.42;2.20;;;17.20;99.90;;;;;;5056337;28;20463;-71
2021/05/26 11:44:59;;;;;;;6.03;3.35;;;17.50;99.90;;;;;;5061720;28;20071;-70
2021/05/26 11:47:42;;;;;;;4.22;3.30;;;17.30;99.90;;;;;;5048799;28;20033;-70
2021/05/26 11:53:12;;;;;;;3.60;2.25;;;16.80;99.90;;;;;;5111595;27;20351;-71
2021/05/26 11:55:38;;;;;;;3.45;2.22;;;16.50;99.90;;;;;;5109311;28;20380;-71
2021/05/26 11:58:04;;;;;;;5.97;2.58;;;16.50;99.90;;;;;;5110315;28;20365;-68
2021/05/26 12:00:35;;;;;;;5.82;2.25;;;16.40;99.90;;;;;;5110628;28;20042;-71
2021/05/26 12:05:41;;;;;;;4.90;2.72;;;16.90;99.90;;;;;;5110286;27;20311;-71
2021/05/26 12:08:31;;;;;;;6.55;2.90;;;16.80;99.90;;;;;;5089369;28;20420;-71
2021/05/26 12:11:02;;;;;;;4.47;2.50;;;16.80;99.90;;;;;;5090735;28;20103;-69
2021/05/26 12:13:31;;;;;;;4.30;2.97;;;16.70;99.90;;;;;;5112190;28;20507;-68
2021/05/26 12:16:01;;;;;;;3.65;2.60;;;16.80;99.90;;;;;;5114101;28;20468;-68
2021/05/26 12:18:27;;;;;;;2.22;1.90;;;16.70;99.90;;;;;;5117112;28;20027;-68
2021/05/26 12:20:55;;;;;;;2.85;2.65;;;16.70;99.90;;;;;;5110756;28;20023;-69
2021/05/26 12:23:42;;;;;;;3.90;2.17;;;16.50;99.90;;;;;;5110173;28;20383;-68
2021/05/26 12:26:32;;;;;;;2.10;1.90;;;16.50;99.90;;;;;;5110696;28;20050;-68
2021/05/26 12:29:02;;;;;;;2.47;1.98;;;16.80;99.90;;;;;;5109911;28;20054;-68
2021/05/26 12:31:30;;;;;;;2.28;1.52;;;16.60;99.90;;;;;;5109135;28;20061;-68
2021/05/26 12:33:56;;;;;;;2.40;1.55;;;16.40;99.90;;;;;;5110374;28;20031;-69
2021/05/26 12:36:24;;;;;;;2.90;2.05;;;16.20;99.90;;;;;;5109867;28;20020;-68
2021/05/26 12:39:01;;;;;;;2.90;1.33;;;16.20;99.90;;;;;;5110575;28;20139;-70
2021/05/26 12:41:33;;;;;;;2.35;1.63;;;16.40;99.90;;;;;;5110194;28;20016;-68
2021/05/26 12:44:16;;;;;;;1.95;1.60;;;16.40;99.90;;;;;;5109899;28;20047;-69
2021/05/26 12:46:47;;;;;;;2.17;1.98;;;16.10;99.90;;;;;;5109741;28;20056;-69
2021/05/26 12:52:09;;;;;;;2.30;1.92;;;16.10;99.90;;;;;;5110976;27;20347;-70
2021/05/26 12:54:44;;;;;;;3.45;1.98;;;15.70;99.90;;;;;;5110737;28;20036;-70
2021/05/26 12:57:12;;;;;;;4.15;2.05;;;15.80;99.90;;;;;;5110818;28;20020;-70
2021/05/26 12:59:40;;;;;;;4.63;2.47;;;15.80;99.90;;;;;;5110200;28;20052;-70
2021/05/26 13:02:09;;;;;;;3.17;2.42;;;16.00;99.90;;;;;;5110293;28;20016;-70
2021/05/26 13:04:35;;;;;;;5.32;3.10;;;15.90;99.90;;;;;;5110557;28;20020;-69
2021/05/26 13:07:01;;;;;;;5.30;3.22;;;15.60;99.90;;;;;;5110025;28;20019;-70
2021/05/26 13:09:30;;;;;;;6.93;4.50;;;15.10;99.90;;;;;;5109569;28;20423;-70
2021/05/26 13:11:56;;;;;;;10.23;6.80;;;14.20;99.90;;;;;;5108914;28;20035;-70
2021/05/26 13:14:36;;;;;;;9.00;5.47;;;13.00;99.90;;;;;;5109253;28;20526;-70
2021/05/26 13:17:02;;;;;;;7.35;5.75;;;12.60;99.90;;;;;;5109724;28;20024;-70
2021/05/26 13:19:27;;;;;;;6.00;4.63;;;12.20;99.90;;;;;;5108264;28;20483;-70
2021/05/26 13:21:53;;;;;;;6.82;4.68;;;12.40;99.90;;;;;;5107137;28;20023;-70
2021/05/26 13:24:20;;;;;;;4.95;3.53;;;12.70;99.90;;;;;;5109003;28;20023;-70